Aberdeen, Pennsylvania
Current Conditions -  °F | °C
As of 1:56 AM on Saturday 01 Nov 2014 (Local Time) from KMDT Reporting Station
Broken Clouds Broken Clouds  
Wind Chill: 44°   Ceiling: 3100
Heat Index: 46°   Visibility: 10mi
Dew Point: 39°   Wind: 5mph
Humidity: 76%   Direction: 320°NW
Pressure: 29.83"   Gusts: NA
Location:  40.1674°N, 76.6045°W
Report Text: KMDT 010556Z 32004KT 10SM BKN031 BKN180 08/04 A2983 RMK AO2 RAE53 SLP103 P0000 60000 T00780039 10089 20072 58014
Loading
Personal Weather Stations






























Interactive Weather Map
Tropical Storm Tracking
New forecast layout! Learn more

10-Day Weather Forecast

Advertisements
Track Severe Weather on mobile